Time;durP1;ratioP1;P1;durP2;ratioP2;P2;SDS_P1;SDS_P2;PMS_P1;PMS_P2;Temp;Humidity;BMP_temperature;BMP_pressure;BME280_temperature;BME280_humidity;BME280_pressure;Samples;Min_cycle;Max_cycle;Signal;HPM_P1;HPM_P2
2021/05/23 00:00:24;;;;;;;0.45;0.28;;;;;;;27.82;27.91;96221.41;5029949;28;20460;-32
2021/05/23 00:02:49;;;;;;;0.45;0.30;;;;;;;27.81;27.78;96231.13;5017696;28;20032;-37
2021/05/23 00:05:16;;;;;;;0.40;0.28;;;;;;;27.81;27.75;96227.63;5009966;28;21007;-33
2021/05/23 00:07:51;;;;;;;0.28;0.15;;;;;;;27.81;27.92;96228.47;5019895;28;20412;-37
2021/05/23 00:10:17;;;;;;;1.75;0.38;;;;;;;27.81;27.90;96219.72;5029451;28;20029;-33
2021/05/23 00:12:46;;;;;;;1.55;0.30;;;;;;;27.81;27.82;96220.56;5017159;28;20095;-32
2021/05/23 00:15:13;;;;;;;0.85;0.30;;;;;;;27.81;27.88;96219.72;5024987;28;20020;-34
2021/05/23 00:17:38;;;;;;;0.57;0.28;;;;;;;27.81;27.87;96228.47;5033184;28;20138;-33
2021/05/23 00:20:04;;;;;;;0.32;0.32;;;;;;;27.80;27.82;96229.41;5026065;28;20142;-37
2021/05/23 00:22:29;;;;;;;3.03;0.30;;;;;;;27.79;27.71;96222.47;5032465;28;20555;-34
2021/05/23 00:24:55;;;;;;;0.43;0.20;;;;;;;27.80;28.04;96229.41;5026310;28;20029;-35
2021/05/23 00:27:20;;;;;;;0.28;0.20;;;;;;;27.80;27.56;96229.41;5025012;28;20033;-31
2021/05/23 00:29:45;;;;;;;0.15;0.10;;;;;;;27.80;27.83;96232.03;5030600;28;20044;-35
2021/05/23 00:32:11;;;;;;;0.52;0.30;;;;;;;27.80;27.47;96234.66;5021804;28;20044;-33
2021/05/23 00:34:36;;;;;;;0.63;0.30;;;;;;;27.80;27.72;96229.41;5025673;28;20037;-32
2021/05/23 00:37:02;;;;;;;0.45;0.22;;;;;;;27.80;28.06;96234.66;5032963;28;20025;-30
2021/05/23 00:39:27;;;;;;;0.17;0.15;;;;;;;27.80;27.80;96234.66;5029324;28;20040;-37
2021/05/23 00:41:52;;;;;;;0.57;0.20;;;;;;;27.80;27.83;96234.66;5022252;28;20028;-30
2021/05/23 00:44:18;;;;;;;0.32;0.20;;;;;;;27.80;27.81;96231.22;5023161;28;20025;-34
2021/05/23 00:46:43;;;;;;;0.45;0.22;;;;;;;27.79;27.86;96233.00;5023915;28;20024;-38
2021/05/23 00:49:09;;;;;;;0.68;0.20;;;;;;;27.79;27.91;96238.25;5027820;28;20380;-35
2021/05/23 00:51:34;;;;;;;0.45;0.20;;;;;;;27.78;27.80;96232.16;5025538;28;20722;-34
2021/05/23 00:53:59;;;;;;;2.75;0.50;;;;;;;27.80;27.90;96229.41;5026289;28;20041;-31
2021/05/23 00:56:25;;;;;;;0.93;0.40;;;;;;;27.78;27.75;96221.63;5029018;28;20033;-33
2021/05/23 00:58:50;;;;;;;0.52;0.30;;;;;;;27.79;27.80;96222.47;5014754;28;20025;-33
2021/05/23 01:01:44;;;;;;;0.32;0.32;;;;;;;27.79;27.96;96233.00;5027002;28;20318;-35
2021/05/23 01:04:10;;;;;;;0.73;0.20;;;;;;;27.78;27.78;96231.31;5010723;28;20087;-31
2021/05/23 01:06:35;;;;;;;0.30;0.20;;;;;;;27.77;27.79;96246.25;5021339;28;20609;-37
2021/05/23 01:09:01;;;;;;;2.17;0.40;;;;;;;27.78;27.82;96241.84;5018193;28;20035;-31
2021/05/23 01:11:29;;;;;;;0.43;0.20;;;;;;;27.78;27.91;96249.75;5025733;28;20044;-34
2021/05/23 01:13:57;;;;;;;0.40;0.20;;;;;;;27.78;27.97;96247.13;5027256;28;20032;-35
2021/05/23 01:16:47;;;;;;;0.20;0.20;;;;;;;27.77;27.96;96255.97;5023389;28;20112;-34
2021/05/23 01:19:31;;;;;;;0.50;0.30;;;;;;;27.78;27.69;96255.00;5029563;28;20142;-35
2021/05/23 01:22:15;;;;;;;0.28;0.13;;;;;;;27.77;27.92;96251.53;5027740;28;20066;-34
2021/05/23 01:24:42;;;;;;;0.28;0.28;;;;;;;27.77;27.89;96262.06;5029624;28;20690;-31
2021/05/23 01:27:08;;;;;;;0.80;0.30;;;;;;;27.76;27.95;96257.75;5026205;28;20050;-30
2021/05/23 01:29:33;;;;;;;0.43;0.22;;;;;;;27.77;27.83;96269.13;5024801;28;20029;-33
2021/05/23 01:31:59;;;;;;;0.85;0.25;;;;;;;27.75;28.04;96266.59;5028900;28;20498;-36
2021/05/23 01:34:24;;;;;;;0.75;0.50;;;;;;;27.75;27.94;96263.97;5004250;28;20256;-32
2021/05/23 01:36:51;;;;;;;1.30;0.38;;;;;;;27.72;28.08;96253.66;5001332;28;20037;-31
2021/05/23 01:39:16;;;;;;;0.40;0.22;;;;;;;27.75;27.99;96263.13;5022012;28;20025;-32
2021/05/23 01:41:42;;;;;;;0.20;0.10;;;;;;;27.74;27.95;96261.44;5010173;28;20336;-30
2021/05/23 01:44:07;;;;;;;0.30;0.28;;;;;;;27.75;28.04;96265.75;5025360;28;20059;-35
2021/05/23 01:46:33;;;;;;;0.40;0.20;;;;;;;27.75;27.95;96268.38;5023891;28;20108;-31
2021/05/23 01:48:58;;;;;;;1.95;0.30;;;;;;;27.74;27.87;96264.06;5029334;28;20032;-30
2021/05/23 01:51:24;;;;;;;0.32;0.22;;;;;;;27.75;28.10;96263.97;5011169;28;20610;-32
2021/05/23 01:53:49;;;;;;;0.88;0.22;;;;;;;27.74;27.93;96259.66;5028998;28;20036;-32
2021/05/23 01:56:15;;;;;;;0.80;0.30;;;;;;;27.74;27.92;96257.03;5031110;28;20041;-31
2021/05/23 01:58:40;;;;;;;1.08;0.20;;;;;;;27.74;27.95;96271.97;5029414;28;20021;-35
2021/05/23 02:01:05;;;;;;;1.58;0.20;;;;;;;27.74;27.93;96274.59;5024465;28;20974;-32
2021/05/23 02:03:31;;;;;;;1.00;0.30;;;;;;;27.74;27.87;96279.88;5031658;28;20063;-33
2021/05/23 02:05:58;;;;;;;0.57;0.30;;;;;;;27.73;27.83;96289.53;5027670;28;20032;-32
2021/05/23 02:08:24;;;;;;;0.88;0.43;;;;;;;27.73;27.99;96299.25;5017666;28;20035;-33
2021/05/23 02:10:50;;;;;;;1.15;0.20;;;;;;;27.72;28.21;96318.63;5019511;28;20025;-32
2021/05/23 02:13:16;;;;;;;1.13;0.38;;;;;;;27.74;28.00;96330.75;5033914;28;20032;-37
2021/05/23 02:15:42;;;;;;;1.00;0.20;;;;;;;27.75;28.07;96326.28;5026132;28;20028;-35
2021/05/23 02:18:07;;;;;;;0.52;0.40;;;;;;;27.75;28.09;96331.56;5030955;28;20774;-35
2021/05/23 02:20:33;;;;;;;1.02;0.30;;;;;;;27.74;28.09;96336.00;5023544;28;20025;-36
2021/05/23 02:22:59;;;;;;;1.05;0.40;;;;;;;27.74;27.96;96336.00;5035931;28;20061;-34
2021/05/23 02:25:26;;;;;;;2.05;0.38;;;;;;;27.74;28.05;96336.00;5020391;28;20035;-32
2021/05/23 02:27:57;;;;;;;3.28;0.40;;;;;;;27.75;27.95;96336.81;5031665;28;20033;-33
2021/05/23 02:30:30;;;;;;;0.28;0.20;;;;;;;27.75;27.91;96327.16;5020169;28;20088;-32
2021/05/23 02:32:56;;;;;;;1.75;0.45;;;;;;;27.75;27.93;96319.25;5024502;28;20120;-36
2021/05/23 02:35:23;;;;;;;1.35;0.43;;;;;;;27.75;27.87;96315.75;5026361;28;20029;-35
2021/05/23 02:37:48;;;;;;;0.57;0.20;;;;;;;27.75;27.96;96310.50;5029054;28;20043;-30
2021/05/23 02:40:15;;;;;;;1.65;0.20;;;;;;;27.74;28.00;96296.50;5028665;28;20932;-30
2021/05/23 02:42:41;;;;;;;0.68;0.30;;;;;;;27.75;27.97;96297.34;5023498;28;20025;-39
2021/05/23 02:45:08;;;;;;;0.20;0.20;;;;;;;27.74;27.92;96295.66;5027425;28;20557;-33
2021/05/23 02:47:33;;;;;;;0.45;0.30;;;;;;;27.73;28.07;96297.44;5021039;28;20031;-29
2021/05/23 02:49:58;;;;;;;0.22;0.22;;;;;;;27.72;27.90;96300.22;5027716;28;20609;-33
2021/05/23 02:52:24;;;;;;;0.63;0.15;;;;;;;27.73;28.03;96301.88;5017527;28;20427;-31
2021/05/23 02:54:50;;;;;;;0.22;0.15;;;;;;;27.71;27.88;96296.72;5033964;28;20044;-38
2021/05/23 02:57:15;;;;;;;1.15;0.30;;;;;;;27.72;27.97;96302.84;5029948;28;20034;-31
2021/05/23 02:59:41;;;;;;;0.47;0.35;;;;;;;27.71;28.01;96298.50;5029760;28;20032;-34
2021/05/23 03:02:06;;;;;;;1.23;0.20;;;;;;;27.71;28.12;96309.03;5017570;28;20630;-33
2021/05/23 03:04:32;;;;;;;0.20;0.20;;;;;;;27.71;28.08;96319.56;5021810;28;20567;-31
2021/05/23 03:06:57;;;;;;;0.20;0.20;;;;;;;27.71;28.09;96314.28;5028673;28;20033;-34
2021/05/23 03:09:23;;;;;;;1.25;0.30;;;;;;;27.70;28.08;96334.53;5022466;28;20144;-32
2021/05/23 03:11:48;;;;;;;1.13;0.25;;;;;;;27.71;27.99;96335.34;5016325;28;20082;-34
2021/05/23 03:14:14;;;;;;;1.42;0.43;;;;;;;27.69;28.03;96338.09;5023554;28;20501;-35
2021/05/23 03:16:40;;;;;;;0.43;0.20;;;;;;;27.68;28.23;96340.84;5028104;28;20032;-34
2021/05/23 03:19:05;;;;;;;0.22;0.20;;;;;;;27.70;28.05;96349.47;5017172;28;20029;-35
2021/05/23 03:21:31;;;;;;;0.73;0.35;;;;;;;27.70;28.17;96349.47;5030702;28;20059;-37
2021/05/23 03:23:56;;;;;;;0.43;0.28;;;;;;;27.69;28.13;96350.41;5030159;28;20028;-31
2021/05/23 03:26:21;;;;;;;0.75;0.20;;;;;;;27.68;28.11;96352.19;5022348;28;20080;-31
2021/05/23 03:28:47;;;;;;;1.35;0.28;;;;;;;27.68;28.04;96351.38;5027848;28;21089;-36
2021/05/23 03:31:12;;;;;;;0.22;0.22;;;;;;;27.68;28.02;96354.00;5025776;28;20534;-33
2021/05/23 03:33:38;;;;;;;0.47;0.15;;;;;;;27.69;28.24;96363.59;5026447;28;20029;-34
2021/05/23 03:36:03;;;;;;;1.08;0.20;;;;;;;27.69;28.02;96363.59;5030620;28;22232;-33
2021/05/23 03:38:29;;;;;;;0.13;0.10;;;;;;;27.65;28.23;96363.78;5027547;28;20032;-31
2021/05/23 03:40:54;;;;;;;0.10;0.10;;;;;;;27.68;27.99;96372.44;5015734;28;20037;-33
2021/05/23 03:43:19;;;;;;;1.25;0.40;;;;;;;27.67;28.01;96384.75;5030186;28;20029;-36
2021/05/23 03:45:45;;;;;;;0.45;0.32;;;;;;;27.67;28.15;96381.25;5027585;28;20033;-36
2021/05/23 03:48:10;;;;;;;0.75;0.35;;;;;;;27.65;28.13;96376.94;5028663;28;20025;-37
2021/05/23 03:50:36;;;;;;;0.20;0.10;;;;;;;27.65;28.19;96384.84;5032755;28;20063;-32
2021/05/23 03:53:01;;;;;;;0.10;0.10;;;;;;;27.67;28.32;96391.78;5027146;28;20521;-37
2021/05/23 03:55:27;;;;;;;0.43;0.20;;;;;;;27.65;28.26;96395.38;5028587;28;22050;-35
2021/05/23 03:57:53;;;;;;;0.20;0.10;;;;;;;27.65;28.30;96403.28;5022519;28;20041;-31
2021/05/23 04:00:19;;;;;;;0.47;0.30;;;;;;;27.65;28.29;96405.06;5032435;28;20032;-31
2021/05/23 04:02:48;;;;;;;0.40;0.20;;;;;;;27.64;28.23;96404.22;5034369;28;20041;-33
2021/05/23 04:05:14;;;;;;;0.57;0.35;;;;;;;27.65;28.14;96405.91;5027370;28;20049;-36
2021/05/23 04:07:39;;;;;;;0.85;0.20;;;;;;;27.65;28.18;96415.59;5034095;28;20514;-35
2021/05/23 04:10:06;;;;;;;0.30;0.20;;;;;;;27.62;28.28;96411.38;5029405;28;20102;-31
2021/05/23 04:12:36;;;;;;;0.25;0.10;;;;;;;27.64;28.23;96421.78;5022478;28;21444;-36
2021/05/23 04:15:01;;;;;;;0.32;0.20;;;;;;;27.64;28.29;96414.75;5029550;28;20548;-32
2021/05/23 04:17:28;;;;;;;0.40;0.20;;;;;;;27.65;28.15;96420.88;5023706;28;20028;-30
2021/05/23 04:19:53;;;;;;;0.13;0.13;;;;;;;27.64;28.19;96425.28;5026488;28;20050;-31
2021/05/23 04:22:18;;;;;;;0.75;0.13;;;;;;;27.63;28.14;96423.59;5028574;28;20031;-36
2021/05/23 04:24:44;;;;;;;0.03;0.03;;;;;;;27.64;28.33;96435.81;5020741;28;20294;-37
2021/05/23 04:27:09;;;;;;;0.50;0.10;;;;;;;27.64;28.26;96435.81;5028581;28;20027;-33
2021/05/23 04:29:35;;;;;;;0.25;0.20;;;;;;;27.63;28.21;96436.75;5032930;28;20042;-34
2021/05/23 04:32:01;;;;;;;0.38;0.20;;;;;;;27.62;28.33;96435.06;5023628;28;20094;-32
2021/05/23 04:34:27;;;;;;;2.40;0.28;;;;;;;27.63;28.22;96431.50;5026925;28;20083;-31
2021/05/23 04:36:52;;;;;;;0.52;0.30;;;;;;;27.61;28.16;96428.09;5033866;28;20033;-33
2021/05/23 04:39:18;;;;;;;0.10;0.10;;;;;;;27.62;28.25;96427.16;5025573;28;20028;-32
2021/05/23 04:41:43;;;;;;;0.32;0.10;;;;;;;27.62;28.08;96427.16;5019760;28;20725;-35
2021/05/23 04:44:09;;;;;;;0.30;0.20;;;;;;;27.61;28.16;96430.75;5027785;28;20052;-37
2021/05/23 04:46:34;;;;;;;0.52;0.20;;;;;;;27.61;28.33;96429.91;5021301;28;20830;-34
2021/05/23 04:48:59;;;;;;;1.02;0.30;;;;;;;27.61;28.26;96443.91;5031964;28;20098;-34
2021/05/23 04:51:25;;;;;;;0.20;0.13;;;;;;;27.61;28.29;96450.97;5022937;28;20033;-36
2021/05/23 04:53:50;;;;;;;0.85;0.20;;;;;;;27.61;28.26;96450.97;5026959;28;20036;-35
2021/05/23 04:56:16;;;;;;;0.10;0.10;;;;;;;27.61;28.25;96451.78;5023445;28;20029;-33
2021/05/23 04:58:41;;;;;;;0.55;0.30;;;;;;;27.61;28.32;96454.44;5023065;28;20113;-30
2021/05/23 05:01:07;;;;;;;0.30;0.20;;;;;;;27.61;28.25;96466.75;5022604;28;20032;-33
2021/05/23 05:03:32;;;;;;;2.58;0.20;;;;;;;27.60;28.26;96468.50;5025709;28;20056;-32
2021/05/23 05:05:57;;;;;;;0.47;0.20;;;;;;;27.59;28.44;96472.09;5024214;28;20037;-33
2021/05/23 05:08:23;;;;;;;0.20;0.20;;;;;;;27.60;28.30;96476.41;5023597;28;20021;-32
2021/05/23 05:10:48;;;;;;;0.43;0.10;;;;;;;27.61;28.21;96482.56;5024077;28;20064;-32
2021/05/23 05:13:14;;;;;;;0.10;0.10;;;;;;;27.59;28.41;96485.25;5028028;28;20113;-34
2021/05/23 05:15:39;;;;;;;0.75;0.30;;;;;;;27.59;28.29;96487.88;5026794;28;20024;-32
2021/05/23 05:18:04;;;;;;;2.38;0.13;;;;;;;27.59;28.34;96490.53;5020536;28;20037;-37
2021/05/23 05:20:30;;;;;;;0.10;0.10;;;;;;;27.60;28.23;96496.59;5018017;28;20046;-35
2021/05/23 05:22:55;;;;;;;4.70;0.20;;;;;;;27.59;28.23;96501.03;5026181;28;20036;-33
2021/05/23 05:25:21;;;;;;;0.20;0.10;;;;;;;27.56;28.33;96490.72;5017970;28;20634;-35
2021/05/23 05:27:46;;;;;;;0.85;0.20;;;;;;;27.59;28.40;96505.47;5029988;28;20041;-35
2021/05/23 05:30:12;;;;;;;0.20;0.20;;;;;;;27.58;28.34;96515.13;5026015;28;20024;-32
2021/05/23 05:32:38;;;;;;;0.17;0.10;;;;;;;27.59;28.35;96522.09;5032494;28;20033;-34
2021/05/23 05:35:03;;;;;;;0.52;0.20;;;;;;;27.58;28.40;96517.75;5022877;28;20086;-38
2021/05/23 05:37:29;;;;;;;0.65;0.20;;;;;;;27.58;28.29;96522.19;5018472;28;20029;-32
2021/05/23 05:39:54;;;;;;;0.68;0.20;;;;;;;27.57;28.22;96529.25;5021973;28;20040;-33
2021/05/23 05:42:20;;;;;;;0.20;0.20;;;;;;;27.58;28.35;96541.44;5019840;28;20108;-30
2021/05/23 05:44:45;;;;;;;0.45;0.28;;;;;;;27.59;28.18;96545.78;5024712;28;20033;-31
2021/05/23 05:47:11;;;;;;;0.30;0.10;;;;;;;27.58;28.28;96546.72;5022459;28;20372;-31
2021/05/23 05:49:37;;;;;;;0.20;0.20;;;;;;;27.58;28.40;96553.78;5033475;28;20060;-39
2021/05/23 05:52:03;;;;;;;0.93;0.28;;;;;;;27.58;28.36;96556.41;5018317;28;20060;-31
2021/05/23 05:54:29;;;;;;;0.45;0.20;;;;;;;27.58;28.31;96562.50;5022881;28;20146;-29
2021/05/23 05:56:54;;;;;;;0.20;0.20;;;;;;;27.57;28.31;96567.91;5019775;28;20663;-33
2021/05/23 05:59:20;;;;;;;0.80;0.38;;;;;;;27.56;28.29;96572.31;5030322;28;20084;-31
2021/05/23 06:01:45;;;;;;;0.08;0.08;;;;;;;27.57;28.41;96568.72;5016498;28;20544;-34
2021/05/23 06:04:10;;;;;;;2.53;0.32;;;;;;;27.57;28.32;96573.97;5028837;28;20492;-33
2021/05/23 06:06:36;;;;;;;0.10;0.10;;;;;;;27.57;28.31;96568.72;5019994;28;20105;-32
2021/05/23 06:09:01;;;;;;;6.38;0.70;;;;;;;27.57;28.40;96568.72;5025003;28;20308;-30
2021/05/23 06:11:27;;;;;;;3.58;0.35;;;;;;;27.57;28.57;96568.72;5008902;28;20037;-31
2021/05/23 06:13:52;;;;;;;5.93;0.30;;;;;;;27.56;28.63;96569.66;5032211;28;20045;-35
2021/05/23 06:16:17;;;;;;;1.52;0.40;;;;;;;27.56;28.54;96564.41;5030375;28;20372;-38
2021/05/23 06:18:45;;;;;;;2.25;0.40;;;;;;;27.57;28.46;96568.72;5025704;28;20047;-33
2021/05/23 06:21:10;;;;;;;2.83;0.30;;;;;;;27.56;28.48;96569.66;5022706;28;20075;-35
2021/05/23 06:23:36;;;;;;;0.85;0.15;;;;;;;27.56;28.38;96574.06;5024410;28;20032;-31
2021/05/23 06:26:01;;;;;;;0.52;0.28;;;;;;;27.56;28.45;96579.34;5017013;28;20463;-31
2021/05/23 06:28:27;;;;;;;1.77;0.40;;;;;;;27.56;28.45;96574.94;5028568;28;20051;-35
2021/05/23 06:30:52;;;;;;;2.00;0.20;;;;;;;27.55;28.41;96573.25;5026555;28;20044;-33
2021/05/23 06:33:18;;;;;;;0.20;0.20;;;;;;;27.56;28.41;96580.19;5015998;28;20600;-33
2021/05/23 06:35:43;;;;;;;7.55;0.40;;;;;;;27.57;28.46;96581.06;5022448;28;20955;-36
2021/05/23 06:38:08;;;;;;;6.13;0.82;;;;;;;27.56;28.33;96580.19;5018711;28;20032;-36
2021/05/23 06:40:34;;;;;;;14.95;1.10;;;;;;;27.55;28.72;96578.50;5012228;28;20028;-32
2021/05/23 06:42:59;;;;;;;7.90;1.05;;;;;;;27.55;28.65;96586.41;5017113;28;20455;-32
2021/05/23 06:45:25;;;;;;;4.25;0.73;;;;;;;27.55;28.91;96594.31;5019056;28;20769;-32
2021/05/23 06:47:50;;;;;;;2.85;0.35;;;;;;;27.56;28.82;96590.72;5017066;28;20053;-31
2021/05/23 06:50:15;;;;;;;4.18;0.50;;;;;;;27.56;28.81;96590.72;5009265;28;20056;-35
2021/05/23 06:52:41;;;;;;;1.55;0.40;;;;;;;27.53;28.42;96585.66;5004673;28;20893;-33
2021/05/23 06:55:07;;;;;;;6.85;0.50;;;;;;;27.56;27.96;96589.88;5018030;28;20032;-34
2021/05/23 06:57:32;;;;;;;6.45;0.77;;;;;;;27.53;27.55;96585.66;5020251;28;20037;-33
2021/05/23 06:59:57;;;;;;;2.78;0.50;;;;;;;27.51;27.35;96574.38;5019826;28;20372;-33
2021/05/23 07:02:23;;;;;;;3.20;0.50;;;;;;;27.49;27.23;96584.16;5019022;28;20041;-33
2021/05/23 07:04:49;;;;;;;1.35;0.30;;;;;;;27.47;27.30;96586.06;5011973;28;20539;-34
2021/05/23 07:07:15;;;;;;;1.33;0.43;;;;;;;27.45;27.14;96588.78;5019223;28;20025;-35
2021/05/23 07:09:41;;;;;;;3.65;0.65;;;;;;;27.44;27.22;96591.50;5019059;28;20601;-33
2021/05/23 07:12:07;;;;;;;2.35;0.70;;;;;;;27.42;27.25;96588.97;5015706;28;20594;-30
2021/05/23 07:14:32;;;;;;;1.70;0.63;;;;;;;27.42;27.12;96598.66;5016336;28;21779;-30
2021/05/23 07:16:58;;;;;;;2.63;0.60;;;;;;;27.39;27.28;96595.25;5017038;28;20033;-30
2021/05/23 07:19:23;;;;;;;3.15;0.50;;;;;;;27.37;27.21;96597.16;5021181;28;20530;-31
2021/05/23 07:21:49;;;;;;;1.50;0.40;;;;;;;27.38;27.56;96613.78;5019950;28;20036;-36
2021/05/23 07:24:14;;;;;;;1.20;0.50;;;;;;;27.38;27.66;96609.38;5022347;28;20420;-31
2021/05/23 07:26:39;;;;;;;1.98;0.57;;;;;;;27.39;27.97;96618.94;5018899;28;20032;-34
2021/05/23 07:29:06;;;;;;;3.35;0.30;;;;;;;27.41;28.33;96631.19;5025202;28;20050;-31
2021/05/23 07:31:32;;;;;;;2.72;0.60;;;;;;;27.43;28.08;96627.50;5014467;28;20041;-33
2021/05/23 07:33:57;;;;;;;4.32;0.65;;;;;;;27.43;28.17;96630.16;5019574;28;20320;-32
2021/05/23 07:36:23;;;;;;;0.75;0.30;;;;;;;27.45;28.26;96632.66;5017371;28;20103;-35
2021/05/23 07:38:48;;;;;;;0.98;0.40;;;;;;;27.46;28.22;96626.47;5021462;28;20045;-36
2021/05/23 07:41:13;;;;;;;3.10;0.50;;;;;;;27.48;28.24;96632.47;5019146;28;20028;-32
2021/05/23 07:43:39;;;;;;;0.57;0.45;;;;;;;27.50;28.32;96630.59;5022964;28;20036;-32
2021/05/23 07:46:07;;;;;;;0.98;0.25;;;;;;;27.50;28.31;96628.81;5025243;28;20477;-30
2021/05/23 07:48:32;;;;;;;1.20;0.35;;;;;;;27.53;28.29;96625.13;5022535;28;20143;-32
2021/05/23 07:50:58;;;;;;;0.68;0.30;;;;;;;27.54;28.34;96626.84;5018052;28;20036;-33
2021/05/23 07:53:23;;;;;;;1.30;0.52;;;;;;;27.56;28.41;96627.56;5022658;28;20946;-37
2021/05/23 07:55:49;;;;;;;0.68;0.50;;;;;;;27.55;28.29;96620.63;5016517;28;20033;-31
2021/05/23 07:58:14;;;;;;;0.77;0.40;;;;;;;27.60;28.29;96631.69;5018969;28;20033;-33
2021/05/23 08:00:39;;;;;;;1.45;0.52;;;;;;;27.61;28.27;96622.06;5019584;28;20029;-35
2021/05/23 08:03:05;;;;;;;1.17;0.50;;;;;;;27.63;28.32;96626.28;5028732;28;20033;-29
2021/05/23 08:05:30;;;;;;;1.77;0.47;;;;;;;27.65;28.37;96623.56;5026245;28;20058;-30
2021/05/23 08:07:56;;;;;;;3.17;0.57;;;;;;;27.65;28.29;96627.03;5021189;28;20056;-30
2021/05/23 08:10:21;;;;;;;2.10;0.38;;;;;;;27.68;28.40;96625.16;5015973;28;20053;-36
2021/05/23 08:12:46;;;;;;;3.70;0.60;;;;;;;27.65;27.22;96628.81;5019424;28;20766;-30
2021/05/23 08:15:15;;;;;;;2.15;0.63;;;;;;;27.57;25.60;96637.16;5021975;28;20048;-32
2021/05/23 08:17:41;;;;;;;7.63;0.82;;;;;;;27.41;25.11;96633.81;5020264;28;20033;-35
2021/05/23 08:20:07;;;;;;;1.67;0.80;;;;;;;27.22;24.26;96634.94;5019467;28;20044;-30
2021/05/23 08:22:33;;;;;;;1.90;0.60;;;;;;;27.00;24.27;96637.09;5019800;28;20318;-34
2021/05/23 08:24:58;;;;;;;3.08;0.88;;;;;;;26.78;24.16;96642.78;5023622;28;20033;-31
2021/05/23 08:27:24;;;;;;;7.65;0.90;;;;;;;26.57;24.43;96639.63;5024553;28;20889;-33
2021/05/23 08:29:51;;;;;;;7.18;0.90;;;;;;;26.43;24.96;96638.66;5023455;28;20021;-34
2021/05/23 08:32:16;;;;;;;5.38;1.08;;;;;;;26.35;25.49;96636.47;5020803;28;20064;-36
2021/05/23 08:34:42;;;;;;;3.45;0.85;;;;;;;26.32;25.86;96638.44;5014941;28;22864;-29
2021/05/23 08:37:07;;;;;;;2.33;0.95;;;;;;;26.31;26.20;96634.97;5016529;28;20032;-34
2021/05/23 08:39:33;;;;;;;1.63;0.98;;;;;;;26.33;26.23;96643.63;5019059;28;20017;-30
2021/05/23 08:41:58;;;;;;;3.67;0.98;;;;;;;26.36;26.57;96645.22;5016621;28;20035;-31
2021/05/23 08:44:24;;;;;;;2.15;0.90;;;;;;;26.41;26.92;96640.53;5013168;28;20047;-35
2021/05/23 08:46:53;;;;;;;3.25;1.00;;;;;;;26.45;27.13;96649.06;5013178;28;20025;-35
2021/05/23 08:49:23;;;;;;;1.85;0.80;;;;;;;26.50;27.11;96649.66;5016558;28;20025;-29
2021/05/23 08:51:49;;;;;;;3.28;0.90;;;;;;;26.56;27.26;96630.91;5018603;28;20024;-35
2021/05/23 08:54:15;;;;;;;1.63;0.82;;;;;;;26.60;27.28;96639.44;5018939;28;20037;-33
2021/05/23 08:56:41;;;;;;;7.68;0.90;;;;;;;26.66;27.24;96638.25;5017012;28;20601;-31
2021/05/23 08:59:10;;;;;;;1.92;0.82;;;;;;;26.70;27.38;96645.03;5019487;28;20413;-36
2021/05/23 09:01:36;;;;;;;3.92;0.75;;;;;;;26.76;27.51;96649.91;5021547;28;20075;-37
2021/05/23 09:04:03;;;;;;;5.45;2.22;;;;;;;26.80;27.50;96654.03;5018502;28;20779;-30
2021/05/23 09:06:30;;;;;;;1.38;0.70;;;;;;;26.84;27.52;96647.66;5024770;28;20668;-37
2021/05/23 09:08:59;;;;;;;1.75;0.70;;;;;;;26.88;27.43;96654.44;5030965;28;20600;-35
2021/05/23 09:11:24;;;;;;;2.95;0.77;;;;;;;26.92;27.44;96659.53;5027884;28;20085;-32
2021/05/23 09:13:51;;;;;;;3.08;0.82;;;;;;;26.96;27.54;96666.31;5033108;28;20533;-33
2021/05/23 09:16:16;;;;;;;4.13;1.08;;;;;;;26.99;27.57;96666.13;5027625;28;20041;-36
2021/05/23 09:18:47;;;;;;;3.13;0.88;;;;;;;27.02;27.65;96697.50;5029628;28;20234;-34
2021/05/23 09:21:16;;;;;;;2.58;0.82;;;;;;;27.05;27.74;96699.94;5019970;28;20037;-31
2021/05/23 09:23:48;;;;;;;4.78;0.95;;;;;;;27.08;27.79;96697.13;5020291;28;20565;-29
2021/05/23 09:26:21;;;;;;;3.03;1.05;;;;;;;27.10;27.72;96694.41;5025278;28;20731;-34
2021/05/23 09:28:50;;;;;;;3.55;0.93;;;;;;;27.12;27.69;96697.81;5023002;28;20039;-31
2021/05/23 09:31:33;;;;;;;2.10;0.90;;;;;;;27.13;27.57;96700.34;5020589;28;20325;-32
2021/05/23 09:33:59;;;;;;;3.50;0.90;;;;;;;27.17;27.59;96697.50;5018521;28;20551;-32
2021/05/23 09:36:24;;;;;;;1.02;0.60;;;;;;;27.18;27.62;96699.19;5030377;28;20029;-37
2021/05/23 09:38:59;;;;;;;6.40;0.85;;;;;;;27.20;27.72;96708.72;5027891;28;20021;-35
2021/05/23 09:41:32;;;;;;;3.47;0.60;;;;;;;27.21;27.71;96712.16;5026969;28;20755;-32
2021/05/23 09:44:10;;;;;;;2.58;0.90;;;;;;;27.23;27.80;96712.94;5018538;28;20052;-34
2021/05/23 09:46:35;;;;;;;2.83;1.20;;;;;;;27.24;27.84;96706.72;5029044;28;20883;-38
2021/05/23 09:49:01;;;;;;;3.70;0.70;;;;;;;27.26;27.91;96716.22;5016794;28;20105;-32
2021/05/23 09:51:26;;;;;;;1.85;0.77;;;;;;;27.28;27.79;96705.59;5018155;28;23311;-35
2021/05/23 09:53:58;;;;;;;2.42;0.80;;;;;;;27.31;27.87;96709.84;5021693;28;20029;-35
2021/05/23 09:56:29;;;;;;;3.88;1.05;;;;;;;27.32;27.88;96707.13;5017847;28;20035;-37
2021/05/23 09:58:54;;;;;;;2.40;0.88;;;;;;;27.33;27.93;96706.16;5017607;28;20059;-36
2021/05/23 10:01:28;;;;;;;1.35;0.80;;;;;;;27.36;27.79;96703.34;5026537;28;20041;-31
2021/05/23 10:03:56;;;;;;;1.35;0.70;;;;;;;27.38;27.87;96698.84;5021889;28;20538;-31
2021/05/23 10:06:33;;;;;;;3.08;0.73;;;;;;;27.40;27.93;96688.22;5019061;28;20039;-35
2021/05/23 10:08:58;;;;;;;3.08;0.85;;;;;;;27.36;27.97;96684.94;5018403;28;20336;-30
2021/05/23 10:11:24;;;;;;;4.70;0.75;;;;;;;27.44;27.89;96691.50;5018608;28;20055;-34
2021/05/23 10:13:50;;;;;;;1.67;0.80;;;;;;;27.46;27.92;96689.63;5016939;28;20575;-31
2021/05/23 10:16:16;;;;;;;2.20;0.70;;;;;;;27.47;27.94;96694.81;5023935;28;20140;-36
2021/05/23 10:18:41;;;;;;;3.63;0.80;;;;;;;27.48;28.04;96699.13;5019124;28;20036;-31
2021/05/23 10:21:07;;;;;;;1.38;0.60;;;;;;;27.51;28.11;96692.81;5040523;28;20025;-32
2021/05/23 10:23:37;;;;;;;1.73;0.80;;;;;;;27.52;28.02;96695.38;5024539;28;20029;-34
2021/05/23 10:26:05;;;;;;;2.50;0.85;;;;;;;27.54;28.06;96697.91;5000395;28;20510;-33
2021/05/23 10:28:30;;;;;;;2.50;0.77;;;;;;;27.56;27.86;96697.78;5001546;28;20083;-33
2021/05/23 10:30:56;;;;;;;1.83;0.88;;;;;;;27.55;28.11;96683.78;5005985;28;20040;-31
2021/05/23 10:33:22;;;;;;;1.73;0.70;;;;;;;27.59;28.12;96706.34;5018290;28;20037;-31
2021/05/23 10:35:49;;;;;;;2.88;1.00;;;;;;;27.59;27.93;96701.09;5021023;28;20218;-36
2021/05/23 10:38:23;;;;;;;2.55;0.80;;;;;;;27.60;28.07;96694.03;5019839;28;20044;-33
2021/05/23 10:41:07;;;;;;;2.33;0.88;;;;;;;27.60;27.83;96712.44;5020345;28;20072;-34
2021/05/23 10:43:34;;;;;;;1.17;0.60;;;;;;;27.60;27.91;96718.56;5021731;28;20037;-34
2021/05/23 10:46:13;;;;;;;1.92;0.60;;;;;;;27.61;27.74;96724.72;5020662;28;20082;-31
2021/05/23 10:48:39;;;;;;;1.15;0.70;;;;;;;27.62;27.71;96737.75;5037674;28;20599;-35
2021/05/23 10:51:15;;;;;;;1.88;0.73;;;;;;;27.61;27.80;96741.34;5024969;28;20024;-31
2021/05/23 10:53:40;;;;;;;2.17;0.80;;;;;;;27.63;27.79;96738.63;5023039;28;20036;-38
2021/05/23 10:56:06;;;;;;;1.75;0.77;;;;;;;27.62;27.96;96743.03;5023629;28;20032;-32
2021/05/23 10:58:31;;;;;;;1.90;0.60;;;;;;;27.62;27.72;96750.94;5018504;28;20044;-34
2021/05/23 11:00:57;;;;;;;2.25;0.90;;;;;;;27.63;27.68;96749.16;5022046;28;20055;-30
2021/05/23 11:03:24;;;;;;;3.60;0.70;;;;;;;27.62;27.61;96750.94;5011641;28;20033;-33
2021/05/23 11:05:59;;;;;;;2.00;0.52;;;;;;;27.64;27.68;96751.69;5020890;28;20641;-30
2021/05/23 11:08:31;;;;;;;1.27;0.60;;;;;;;27.63;27.59;96739.47;5020873;28;20029;-34
2021/05/23 11:10:56;;;;;;;1.33;0.60;;;;;;;27.64;27.71;96735.91;5020952;28;20025;-33
2021/05/23 11:13:29;;;;;;;2.53;0.50;;;;;;;27.63;27.53;96730.72;5025898;28;20904;-31
2021/05/23 11:15:55;;;;;;;1.20;0.60;;;;;;;27.64;27.51;96735.91;5022053;28;20256;-31
2021/05/23 11:18:27;;;;;;;0.63;0.50;;;;;;;27.64;27.46;96738.53;5000572;28;20852;-33
2021/05/23 11:20:55;;;;;;;1.35;0.50;;;;;;;27.65;27.45;96732.31;5022432;28;20033;-36
2021/05/23 11:23:20;;;;;;;0.57;0.52;;;;;;;27.64;27.49;96720.09;5022439;28;20583;-32
2021/05/23 11:25:48;;;;;;;1.77;0.45;;;;;;;27.65;27.23;96724.44;4996309;28;20040;-36
2021/05/23 11:28:14;;;;;;;1.40;0.45;;;;;;;27.65;27.37;96721.78;5016082;28;20119;-32
2021/05/23 11:30:40;;;;;;;0.77;0.60;;;;;;;27.68;27.45;96712.03;5009293;28;20075;-33